Time;durP1;ratioP1;P1;durP2;ratioP2;P2;SDS_P1;SDS_P2;PMS_P1;PMS_P2;Temp;Humidity;BMP_temperature;BMP_pressure;BME280_temperature;BME280_humidity;BME280_pressure;Samples;Min_cycle;Max_cycle;Signal;HPM_P1;HPM_P2
2022/11/08 00:01:47;;;;;;;0.82;0.82;;;;;;;13.48;100.00;100707.09;5032716;28;20207;-73
2022/11/08 00:04:16;;;;;;;1.02;1.02;;;;;;;13.39;100.00;100708.72;5010325;28;20228;-73
2022/11/08 00:14:57;;;;;;;0.70;0.70;;;;;;;13.28;100.00;100686.84;5030670;28;20287;-72
2022/11/08 00:17:28;;;;;;;0.70;0.70;;;;;;;13.41;100.00;100691.38;5031995;28;20577;-73
2022/11/08 00:19:55;;;;;;;0.68;0.68;;;;;;;13.44;100.00;100700.09;5078223;28;20628;-73
2022/11/08 00:22:22;;;;;;;0.70;0.70;;;;;;;13.40;100.00;100699.19;5104561;28;20209;-73
2022/11/08 00:24:50;;;;;;;0.70;0.70;;;;;;;13.41;100.00;100693.97;5093367;28;20251;-73
2022/11/08 00:27:19;;;;;;;0.70;0.70;;;;;;;13.53;100.00;100698.47;5109551;28;20198;-73
2022/11/08 00:29:46;;;;;;;0.73;0.73;;;;;;;13.17;100.00;100693.63;5112728;28;20226;-73
2022/11/08 00:32:16;;;;;;;1.27;1.27;;;;;;;13.30;100.00;100698.19;5094247;28;20275;-73
2022/11/08 00:34:44;;;;;;;0.80;0.80;;;;;;;13.31;100.00;100692.09;5103196;28;20872;-73
2022/11/08 00:37:11;;;;;;;0.70;0.70;;;;;;;13.32;100.00;100691.25;5093228;28;20201;-73
2022/11/08 00:39:38;;;;;;;0.70;0.70;;;;;;;13.35;100.00;100693.91;5099664;28;20204;-73
2022/11/08 00:42:05;;;;;;;0.60;0.60;;;;;;;13.40;100.00;100694.84;5102892;28;20209;-73
2022/11/08 00:44:32;;;;;;;0.63;0.63;;;;;;;13.50;100.00;100695.84;5100901;28;20194;-73
2022/11/08 00:46:59;;;;;;;1.08;1.08;;;;;;;13.60;100.00;100700.31;5093089;28;20209;-73
2022/11/08 00:49:25;;;;;;;0.95;0.95;;;;;;;13.76;100.00;100688.34;5092788;28;20656;-73
2022/11/08 00:51:54;;;;;;;0.82;0.82;;;;;;;13.89;100.00;100690.22;5097082;28;20212;-73
2022/11/08 00:54:21;;;;;;;0.70;0.70;;;;;;;13.83;100.00;100690.16;5095891;28;20202;-73
2022/11/08 00:56:49;;;;;;;5.80;3.22;;;;;;;13.86;100.00;100687.59;5077008;28;20205;-73
2022/11/08 00:59:18;;;;;;;0.80;0.80;;;;;;;13.93;100.00;100691.13;5104379;28;20206;-73
2022/11/08 01:01:45;;;;;;;0.70;0.70;;;;;;;13.87;100.00;100698.03;5092827;28;20266;-73
2022/11/08 01:04:14;;;;;;;0.85;0.85;;;;;;;13.93;100.00;100686.78;5093501;28;20226;-74
2022/11/08 01:06:41;;;;;;;0.70;0.70;;;;;;;13.78;100.00;100690.09;5092652;28;20217;-73
2022/11/08 01:09:09;;;;;;;0.88;0.88;;;;;;;13.47;100.00;100694.91;5092539;28;20766;-73
2022/11/08 01:11:38;;;;;;;0.70;0.70;;;;;;;13.68;100.00;100693.47;5104685;28;20200;-73
2022/11/08 01:14:05;;;;;;;0.70;0.70;;;;;;;13.44;100.00;100679.25;5111254;28;20288;-73
2022/11/08 01:16:33;;;;;;;0.70;0.70;;;;;;;13.57;100.00;100691.56;5109768;28;20205;-73
2022/11/08 01:19:01;;;;;;;0.70;0.70;;;;;;;13.52;100.00;100693.25;5109630;28;20273;-73
2022/11/08 01:21:29;;;;;;;0.70;0.70;;;;;;;13.20;100.00;100633.78;5112412;28;20200;-73
2022/11/08 01:23:56;;;;;;;1.20;1.10;;;;;;;13.15;100.00;100658.91;5098653;28;20205;-73
2022/11/08 01:26:26;;;;;;;0.63;0.63;;;;;;;13.43;100.00;100683.59;5093317;28;20190;-73
2022/11/08 01:28:53;;;;;;;0.93;0.93;;;;;;;13.33;100.00;100682.59;5055706;28;20248;-73
2022/11/08 01:31:22;;;;;;;0.80;0.80;;;;;;;13.32;100.00;100680.84;5101991;28;20671;-74
2022/11/08 01:33:49;;;;;;;0.70;0.70;;;;;;;13.31;100.00;100668.66;5110772;28;20197;-73
2022/11/08 01:36:18;;;;;;;0.70;0.70;;;;;;;13.48;100.00;100674.09;5112093;28;20205;-73
2022/11/08 01:38:45;;;;;;;0.80;0.80;;;;;;;13.38;100.00;100674.81;5098440;28;20259;-73
2022/11/08 01:41:14;;;;;;;0.70;0.70;;;;;;;13.50;100.00;100666.28;5073159;28;20591;-73
2022/11/08 01:43:43;;;;;;;0.60;0.60;;;;;;;13.53;100.00;100668.94;5092255;28;20199;-73
2022/11/08 01:46:44;;;;;;;0.70;0.70;;;;;;;13.60;100.00;100665.53;5092033;28;20201;-73
2022/11/08 01:49:26;;;;;;;0.70;0.70;;;;;;;13.60;100.00;100666.44;5092955;28;20201;-73
2022/11/08 01:51:59;;;;;;;0.68;0.68;;;;;;;13.40;100.00;100647.09;5100773;28;20254;-73
2022/11/08 01:54:31;;;;;;;0.60;0.60;;;;;;;13.45;100.00;100670.59;5112271;28;20243;-73
2022/11/08 01:57:00;;;;;;;0.77;0.77;;;;;;;13.36;100.00;100671.34;5106256;28;20194;-73
2022/11/08 01:59:30;;;;;;;0.88;0.88;;;;;;;13.44;100.00;100668.84;5099328;28;20293;-73
2022/11/08 02:01:56;;;;;;;0.70;0.70;;;;;;;13.26;100.00;100659.06;5091590;27;20202;-73
2022/11/08 02:04:23;;;;;;;0.60;0.60;;;;;;;13.29;100.00;100667.78;5091634;28;20681;-73
2022/11/08 02:06:51;;;;;;;0.70;0.70;;;;;;;13.28;100.00;100671.22;5091450;28;20206;-73
2022/11/08 02:09:19;;;;;;;0.75;0.75;;;;;;;13.20;100.00;100649.41;5098952;28;20281;-73
2022/11/08 02:11:47;;;;;;;0.70;0.70;;;;;;;13.30;100.00;100672.16;5093491;28;20287;-73
2022/11/08 02:14:16;;;;;;;0.70;0.70;;;;;;;12.59;100.00;100558.31;5092772;28;20262;-73
2022/11/08 02:16:44;;;;;;;0.68;0.68;;;;;;;13.30;100.00;100673.88;5091959;28;20236;-72
2022/11/08 02:19:19;;;;;;;0.73;0.73;;;;;;;13.35;100.00;100662.63;5053626;28;20658;-73
2022/11/08 02:21:53;;;;;;;0.70;0.70;;;;;;;13.36;100.00;100666.13;5094835;28;20209;-73
2022/11/08 02:24:21;;;;;;;0.60;0.60;;;;;;;13.34;100.00;100662.63;5101221;28;20665;-72
2022/11/08 02:26:51;;;;;;;0.60;0.60;;;;;;;13.16;100.00;100655.44;5071016;28;20203;-73
2022/11/08 02:29:30;;;;;;;0.70;0.70;;;;;;;13.28;100.00;100662.53;5071108;28;20207;-73
2022/11/08 02:31:58;;;;;;;0.70;0.70;;;;;;;13.16;100.00;100665.00;5100430;28;20286;-73
2022/11/08 02:34:27;;;;;;;0.75;0.75;;;;;;;13.21;100.00;100666.78;5091103;28;20198;-73
2022/11/08 02:36:55;;;;;;;0.80;0.80;;;;;;;13.20;100.00;100665.03;5090976;28;20262;-73
2022/11/08 02:39:24;;;;;;;0.80;0.80;;;;;;;13.31;100.00;100667.78;5080947;28;20217;-73
2022/11/08 02:41:51;;;;;;;0.70;0.70;;;;;;;13.23;100.00;100665.09;5111234;28;20198;-72
2022/11/08 02:44:17;;;;;;;0.70;0.70;;;;;;;13.18;100.00;100656.34;5111623;28;20194;-72
2022/11/08 02:46:44;;;;;;;0.70;0.70;;;;;;;13.11;100.00;100638.88;5100484;28;20190;-72
2022/11/08 02:49:11;;;;;;;0.80;0.80;;;;;;;13.26;100.00;100670.34;5110797;28;20193;-73
2022/11/08 02:51:38;;;;;;;0.75;0.75;;;;;;;13.25;100.00;100676.41;5109598;28;20643;-72
2022/11/08 02:54:05;;;;;;;0.75;0.75;;;;;;;13.28;100.00;100660.81;5091680;28;20198;-72
2022/11/08 02:56:33;;;;;;;0.70;0.70;;;;;;;13.37;100.00;100667.88;5091194;28;20221;-74
2022/11/08 02:59:00;;;;;;;0.93;0.93;;;;;;;13.29;100.00;100670.38;5091951;28;20202;-73
2022/11/08 03:01:26;;;;;;;0.70;0.70;;;;;;;13.29;100.00;100670.38;5096436;28;20185;-74
2022/11/08 03:03:53;;;;;;;0.70;0.70;;;;;;;13.22;100.00;100658.13;5110290;28;20201;-73
2022/11/08 03:06:20;;;;;;;0.80;0.80;;;;;;;13.23;100.00;100659.00;5110330;28;20215;-73
2022/11/08 03:08:47;;;;;;;0.70;0.70;;;;;;;13.33;100.00;100672.19;5110928;28;20201;-73
2022/11/08 03:11:14;;;;;;;0.70;0.70;;;;;;;13.39;100.00;100677.47;5102579;28;20230;-73
2022/11/08 03:13:42;;;;;;;0.60;0.60;;;;;;;13.53;100.00;100681.97;5090661;28;20206;-73
2022/11/08 03:16:09;;;;;;;0.60;0.60;;;;;;;13.49;100.00;100685.38;5091280;28;20213;-73
2022/11/08 03:18:35;;;;;;;0.70;0.70;;;;;;;13.52;100.00;100688.06;5098048;28;20190;-73
2022/11/08 03:21:02;;;;;;;0.70;0.70;;;;;;;13.51;100.00;100691.50;5111084;28;20578;-73
2022/11/08 03:23:29;;;;;;;0.80;0.80;;;;;;;13.45;100.00;100675.81;5091930;28;20683;-73
2022/11/08 03:25:56;;;;;;;0.60;0.60;;;;;;;13.44;100.00;100681.84;5090774;28;20194;-73
2022/11/08 03:28:22;;;;;;;0.63;0.63;;;;;;;13.53;100.00;100698.47;5099293;28;20197;-73
2022/11/08 03:30:52;;;;;;;0.73;0.73;;;;;;;13.52;100.00;100677.63;5092213;28;20217;-73
2022/11/08 03:33:19;;;;;;;0.80;0.80;;;;;;;13.41;100.00;100675.72;5090950;28;20300;-73
2022/11/08 03:35:46;;;;;;;0.65;0.65;;;;;;;13.48;100.00;100688.88;5070521;28;20379;-74
2022/11/08 03:38:13;;;;;;;0.80;0.80;;;;;;;13.45;100.00;100686.22;5070528;28;20206;-73
2022/11/08 03:40:40;;;;;;;0.60;0.60;;;;;;;13.45;100.00;100688.81;5083279;28;20202;-73
2022/11/08 03:43:07;;;;;;;0.68;0.68;;;;;;;13.44;100.00;100679.25;5092821;28;20198;-73
2022/11/08 03:45:34;;;;;;;0.70;0.70;;;;;;;13.44;100.00;100689.66;5093810;28;20206;-73
2022/11/08 03:48:02;;;;;;;0.70;0.70;;;;;;;13.55;100.00;100688.09;5093448;28;20264;-73
2022/11/08 03:50:29;;;;;;;0.80;0.80;;;;;;;13.35;100.00;100662.63;5093674;28;20225;-73
2022/11/08 03:52:56;;;;;;;0.80;0.80;;;;;;;13.41;100.00;100646.22;5084334;28;20200;-75
2022/11/08 03:55:25;;;;;;;0.80;0.80;;;;;;;13.62;100.00;100669.06;5095763;28;20226;-73
2022/11/08 03:57:53;;;;;;;1.02;1.00;;;;;;;13.56;100.00;100682.88;5114248;28;20204;-73
2022/11/08 04:00:22;;;;;;;0.70;0.70;;;;;;;13.50;100.00;100661.97;5113646;28;20202;-73
2022/11/08 04:02:49;;;;;;;0.70;0.70;;;;;;;13.49;100.00;100682.78;5108657;28;20202;-73
2022/11/08 04:05:18;;;;;;;0.80;0.80;;;;;;;13.49;100.00;100661.94;5093782;28;20237;-73
2022/11/08 04:07:45;;;;;;;0.77;0.77;;;;;;;13.36;100.00;100674.81;5098189;28;20202;-73
2022/11/08 04:10:12;;;;;;;0.60;0.60;;;;;;;13.48;100.00;100688.88;5088873;28;20623;-73
2022/11/08 04:15:25;;;;;;;0.70;0.70;;;;;;;13.12;100.00;100660.59;5114083;28;20200;-73
2022/11/08 04:23:25;;;;;;;0.95;0.95;;;;;;;13.07;100.00;100683.91;5110531;28;20663;-73
2022/11/08 04:25:57;;;;;;;0.80;0.80;;;;;;;12.99;100.00;100669.03;5105269;28;20213;-73
2022/11/08 04:28:25;;;;;;;0.75;0.75;;;;;;;12.87;100.00;100667.13;5095441;28;20206;-73
2022/11/08 04:30:54;;;;;;;0.70;0.70;;;;;;;12.96;100.00;100690.69;5108497;28;20760;-73
2022/11/08 04:33:21;;;;;;;0.70;0.70;;;;;;;12.84;100.00;100690.53;5097791;27;20198;-73
2022/11/08 04:35:49;;;;;;;0.70;0.70;;;;;;;12.85;100.00;100667.09;5100019;28;20193;-73
2022/11/08 04:38:16;;;;;;;0.80;0.80;;;;;;;12.72;100.00;100672.09;5096150;27;20201;-73
2022/11/08 04:40:43;;;;;;;0.70;0.70;;;;;;;12.75;100.00;100687.75;5096613;28;20202;-73
2022/11/08 04:43:10;;;;;;;0.70;0.70;;;;;;;12.69;100.00;100685.06;5075337;28;20271;-73
2022/11/08 04:45:37;;;;;;;0.80;0.80;;;;;;;12.64;100.00;100689.31;5072476;28;20304;-73
2022/11/08 04:48:04;;;;;;;0.70;0.70;;;;;;;12.55;100.00;100681.38;5088135;28;20207;-73
2022/11/08 04:50:31;;;;;;;0.70;0.70;;;;;;;12.54;100.00;100690.91;5093133;28;20214;-73
2022/11/08 04:52:59;;;;;;;0.80;0.80;;;;;;;12.58;100.00;100684.91;5093760;28;20202;-71
2022/11/08 04:55:26;;;;;;;0.80;0.80;;;;;;;12.47;100.00;100694.25;5092774;28;20845;-72
2022/11/08 04:57:57;;;;;;;0.90;0.90;;;;;;;12.54;100.00;100692.63;5093188;28;20653;-71
2022/11/08 05:00:24;;;;;;;0.80;0.80;;;;;;;12.33;100.00;100677.53;5092147;28;20234;-73
2022/11/08 05:02:51;;;;;;;0.80;0.80;;;;;;;12.38;100.00;100700.16;5105902;28;20208;-73
2022/11/08 05:05:18;;;;;;;0.70;0.70;;;;;;;12.39;100.00;100693.22;5112897;28;20229;-72
2022/11/08 05:07:45;;;;;;;0.70;0.70;;;;;;;12.21;100.00;100665.19;5112983;28;20610;-73
2022/11/08 05:10:13;;;;;;;0.80;0.80;;;;;;;12.47;100.00;100695.97;5112945;28;20193;-74
2022/11/08 05:12:40;;;;;;;0.60;0.60;;;;;;;12.37;100.00;100701.03;5097515;28;20206;-73
2022/11/08 05:15:08;;;;;;;0.70;0.70;;;;;;;12.41;100.00;100689.78;5091980;28;20186;-73
2022/11/08 05:17:35;;;;;;;1.05;1.05;;;;;;;13.28;100.00;100676.44;5093424;28;20525;-74
2022/11/08 05:25:32;;;;;;;0.60;0.60;;;;;;;13.35;100.00;100683.47;5108187;28;20390;-74
2022/11/08 05:27:59;;;;;;;0.98;0.98;;;;;;;13.24;100.00;100721.50;5112526;28;20201;-72
2022/11/08 05:30:25;;;;;;;0.60;0.60;;;;;;;13.55;100.00;100704.59;5109388;28;20239;-73
2022/11/08 05:32:52;;;;;;;0.60;0.60;;;;;;;13.67;100.00;100709.06;5112578;28;20287;-72
2022/11/08 05:35:21;;;;;;;0.90;0.90;;;;;;;13.36;100.00;100694.78;5112323;28;20285;-72
2022/11/08 05:37:48;;;;;;;2.03;1.80;;;;;;;13.49;100.00;100729.66;5111442;28;20200;-72
2022/11/08 05:40:14;;;;;;;0.70;0.70;;;;;;;13.72;100.00;100723.91;5105718;28;20202;-71
2022/11/08 05:42:43;;;;;;;0.80;0.80;;;;;;;13.89;100.00;100737.16;5093282;28;20198;-72
2022/11/08 05:45:10;;;;;;;0.60;0.60;;;;;;;13.63;100.00;100712.47;5091915;28;20240;-73
2022/11/08 05:47:37;;;;;;;2.40;2.30;;;;;;;13.39;100.00;100677.47;5092034;28;20190;-73
2022/11/08 05:50:04;;;;;;;0.70;0.70;;;;;;;13.64;100.00;100763.75;5089367;28;20206;-70
2022/11/08 05:52:31;;;;;;;0.80;0.80;;;;;;;13.37;100.00;100764.25;5090882;28;20225;-70
2022/11/08 05:54:58;;;;;;;0.90;0.90;;;;;;;13.42;100.00;100770.41;5095062;28;20812;-73
2022/11/08 05:57:25;;;;;;;0.80;0.80;;;;;;;13.41;100.00;100768.66;5091513;28;20195;-71
2022/11/08 05:59:53;;;;;;;0.80;0.80;;;;;;;13.34;100.00;100780.69;5053432;28;20247;-71
2022/11/08 06:02:19;;;;;;;1.52;1.52;;;;;;;13.41;100.00;100773.88;5093523;28;20250;-71
2022/11/08 06:04:46;;;;;;;0.88;0.88;;;;;;;13.55;100.00;100779.28;5086004;28;20649;-71
2022/11/08 06:07:13;;;;;;;0.70;0.70;;;;;;;13.70;100.00;100782.06;5089822;28;20230;-71
2022/11/08 06:09:40;;;;;;;0.70;0.70;;;;;;;13.57;100.00;100777.56;5091730;28;20194;-71
2022/11/08 06:12:07;;;;;;;0.80;0.80;;;;;;;13.77;100.00;100781.28;5092482;28;20274;-70
2022/11/08 06:14:34;;;;;;;0.80;0.80;;;;;;;13.59;100.00;100736.78;5090160;28;20198;-72
2022/11/08 06:17:02;;;;;;;0.82;0.82;;;;;;;14.09;100.00;100785.19;5091989;28;20268;-72
2022/11/08 06:19:29;;;;;;;0.70;0.70;;;;;;;14.11;100.00;100780.88;5095918;28;20202;-72
2022/11/08 06:21:55;;;;;;;0.70;0.70;;;;;;;14.28;100.00;100783.66;5105846;28;20213;-71
2022/11/08 06:24:22;;;;;;;1.13;1.13;;;;;;;14.43;100.00;100785.59;5093903;28;20768;-73
2022/11/08 06:26:49;;;;;;;0.80;0.80;;;;;;;14.53;100.00;100790.06;5089009;28;20201;-71
2022/11/08 06:29:16;;;;;;;0.80;0.80;;;;;;;14.72;100.00;100777.22;5084758;28;20194;-73
2022/11/08 06:31:43;;;;;;;0.70;0.70;;;;;;;14.74;100.00;100782.44;5091711;28;20642;-73
2022/11/08 06:34:12;;;;;;;0.80;0.80;;;;;;;14.94;100.00;100786.13;5090799;28;20194;-75
2022/11/08 06:36:38;;;;;;;0.88;0.88;;;;;;;14.78;100.00;100765.94;5096925;28;20191;-74
2022/11/08 06:39:05;;;;;;;0.80;0.80;;;;;;;15.01;100.00;100793.16;5084191;28;20190;-74
2022/11/08 06:41:33;;;;;;;0.82;0.82;;;;;;;14.59;100.00;100712.69;5063565;28;20202;-73
2022/11/08 06:44:00;;;;;;;0.60;0.60;;;;;;;14.93;100.00;100760.88;5075366;28;20206;-73
2022/11/08 06:46:27;;;;;;;0.80;0.80;;;;;;;15.08;100.00;100788.84;5094870;28;20202;-74
2022/11/08 06:48:54;;;;;;;0.70;0.70;;;;;;;15.26;100.00;100797.72;5081711;28;20202;-74
2022/11/08 06:51:22;;;;;;;0.85;0.85;;;;;;;15.54;100.00;100792.69;5088521;28;20224;-74
2022/11/08 06:53:49;;;;;;;0.70;0.70;;;;;;;15.60;100.00;100787.50;5085222;28;20297;-73
2022/11/08 06:56:15;;;;;;;0.80;0.80;;;;;;;15.73;100.00;100787.56;5081484;28;20214;-73
2022/11/08 06:58:42;;;;;;;0.70;0.70;;;;;;;15.95;100.00;100793.78;5075869;28;20206;-73
2022/11/08 07:01:10;;;;;;;1.15;1.15;;;;;;;16.22;100.00;100796.53;5074712;28;20199;-72
2022/11/08 07:03:37;;;;;;;0.80;0.80;;;;;;;16.26;100.00;100782.59;5035758;28;20202;-73
2022/11/08 07:06:05;;;;;;;1.67;1.58;;;;;;;16.52;100.00;100800.94;5090224;28;20230;-73
2022/11/08 07:08:34;;;;;;;0.68;0.68;;;;;;;16.43;100.00;100785.22;5078088;28;20209;-73
2022/11/08 07:11:01;;;;;;;0.80;0.80;;;;;;;16.61;100.00;100784.44;5076024;28;20631;-73
2022/11/08 07:13:28;;;;;;;0.70;0.70;;;;;;;16.78;100.00;100793.19;5077819;28;20194;-74
2022/11/08 07:15:58;;;;;;;0.70;0.70;;;;;;;16.96;100.00;100779.22;5083854;28;20206;-74
2022/11/08 07:18:24;;;;;;;0.70;0.70;;;;;;;17.00;100.00;100799.31;5073098;28;20289;-74
2022/11/08 07:20:52;;;;;;;0.80;0.80;;;;;;;17.12;100.00;100794.94;5044674;28;20206;-73
2022/11/08 07:23:19;;;;;;;0.70;0.70;;;;;;;17.19;100.00;100803.69;5081885;28;20303;-73
2022/11/08 07:25:47;;;;;;;1.00;1.00;;;;;;;17.34;100.00;100812.41;5081969;28;20199;-73
2022/11/08 07:28:16;;;;;;;0.70;0.70;;;;;;;17.13;100.00;100780.09;5087012;28;20194;-73
2022/11/08 07:30:43;;;;;;;0.80;0.80;;;;;;;17.26;100.00;100808.94;5079888;28;20285;-74
2022/11/08 07:33:11;;;;;;;0.70;0.70;;;;;;;17.55;100.00;100810.66;5093724;28;20221;-73
2022/11/08 07:35:38;;;;;;;0.70;0.70;;;;;;;17.56;100.00;100804.50;5093856;28;20213;-72
2022/11/08 07:38:05;;;;;;;0.80;0.80;;;;;;;17.44;100.00;100786.19;5093974;28;20276;-73
2022/11/08 07:40:32;;;;;;;0.63;0.63;;;;;;;17.24;100.00;100746.88;5094017;28;20198;-75
2022/11/08 07:43:00;;;;;;;0.60;0.60;;;;;;;17.75;100.00;100806.25;5093703;28;20194;-72
2022/11/08 07:45:28;;;;;;;0.80;0.80;;;;;;;17.93;99.37;100805.31;5093624;28;20214;-72
2022/11/08 07:47:58;;;;;;;0.90;0.90;;;;;;;18.12;96.79;100809.66;5093511;28;20198;-72
2022/11/08 07:50:25;;;;;;;0.80;0.80;;;;;;;17.92;96.12;100816.69;5093803;28;20205;-72
2022/11/08 07:52:52;;;;;;;0.60;0.60;;;;;;;18.07;97.31;100811.41;5093627;28;20222;-74
2022/11/08 07:55:19;;;;;;;0.90;0.90;;;;;;;18.21;96.73;100809.59;5093426;28;20653;-73
2022/11/08 07:57:47;;;;;;;0.73;0.73;;;;;;;18.11;96.75;100793.03;5093801;28;20238;-74
2022/11/08 08:00:16;;;;;;;0.70;0.70;;;;;;;18.46;95.47;100812.97;5093425;28;20205;-74
2022/11/08 08:02:43;;;;;;;0.60;0.60;;;;;;;17.99;96.04;100787.81;5093714;28;20576;-74
2022/11/08 08:05:10;;;;;;;0.80;0.80;;;;;;;17.97;97.30;100810.56;5093476;28;20230;-73
2022/11/08 08:07:37;;;;;;;0.70;0.70;;;;;;;18.03;97.43;100814.91;5093112;28;20202;-72
2022/11/08 08:10:05;;;;;;;0.70;0.70;;;;;;;17.80;99.57;100797.47;5093160;28;20206;-73
2022/11/08 08:12:31;;;;;;;0.68;0.68;;;;;;;17.65;100.00;100808.03;5093438;28;20674;-75
2022/11/08 08:14:58;;;;;;;0.73;0.73;;;;;;;17.84;100.00;100816.72;5093281;28;20303;-74
2022/11/08 08:17:26;;;;;;;0.70;0.70;;;;;;;17.52;100.00;100748.56;5057453;28;20236;-72
2022/11/08 08:19:53;;;;;;;0.70;0.70;;;;;;;17.89;100.00;100820.22;5092876;28;20199;-73
2022/11/08 08:22:20;;;;;;;1.05;1.05;;;;;;;17.99;100.00;100813.16;5093095;28;20198;-73
2022/11/08 08:24:46;;;;;;;0.80;0.80;;;;;;;18.01;100.00;100812.31;5092998;28;20207;-73
2022/11/08 08:27:13;;;;;;;0.73;0.73;;;;;;;18.08;100.00;100821.91;5092862;28;20202;-74
2022/11/08 08:29:40;;;;;;;1.08;1.08;;;;;;;18.21;99.00;100820.97;5092899;28;20197;-72
2022/11/08 08:32:07;;;;;;;0.73;0.73;;;;;;;18.20;97.36;100819.22;5092970;28;20222;-73
2022/11/08 08:34:35;;;;;;;0.80;0.80;;;;;;;18.32;96.43;100803.41;5092994;28;20198;-72
2022/11/08 08:37:01;;;;;;;0.70;0.70;;;;;;;18.21;96.20;100809.59;5092645;28;20209;-73
2022/11/08 08:39:28;;;;;;;0.77;0.77;;;;;;;18.37;94.57;100799.91;5092799;28;20268;-73
2022/11/08 08:41:55;;;;;;;0.70;0.70;;;;;;;18.55;94.15;100820.84;5092882;28;20207;-72
2022/11/08 08:44:22;;;;;;;0.90;0.90;;;;;;;18.78;93.30;100813.69;5092691;28;20209;-73
2022/11/08 08:46:48;;;;;;;2.47;1.67;;;;;;;19.01;91.14;100806.53;5092516;28;20206;-72
2022/11/08 08:49:15;;;;;;;0.70;0.70;;;;;;;19.00;89.98;100819.66;5092149;28;20197;-72
2022/11/08 08:51:43;;;;;;;0.90;0.90;;;;;;;19.10;90.34;100824.84;5092185;28;20654;-72
2022/11/08 08:54:13;;;;;;;0.93;0.93;;;;;;;19.12;89.12;100822.22;5092451;28;20198;-72
2022/11/08 08:56:40;;;;;;;0.80;0.80;;;;;;;19.22;87.84;100822.13;5024286;28;20630;-73
2022/11/08 08:59:07;;;;;;;0.70;0.70;;;;;;;19.28;87.27;100823.81;5092481;28;20599;-72
2022/11/08 09:01:33;;;;;;;1.33;1.33;;;;;;;19.16;86.76;100819.50;5090402;28;20615;-72
2022/11/08 09:04:00;;;;;;;0.70;0.70;;;;;;;19.11;87.10;100810.81;5082748;28;20204;-72
2022/11/08 09:06:27;;;;;;;0.68;0.68;;;;;;;19.14;94.51;100794.13;5081690;28;20207;-72
2022/11/08 09:08:55;;;;;;;0.90;0.90;;;;;;;19.46;100.00;100809.66;5085561;28;20209;-74
2022/11/08 09:11:22;;;;;;;0.60;0.60;;;;;;;19.19;100.00;100814.22;5085008;28;20194;-72
2022/11/08 09:13:49;;;;;;;0.80;0.80;;;;;;;19.16;93.01;100814.25;5092107;28;20217;-73
2022/11/08 09:16:15;;;;;;;0.73;0.73;;;;;;;18.95;94.75;100811.78;5056704;28;20206;-72
2022/11/08 09:18:42;;;;;;;0.60;0.60;;;;;;;19.05;100.00;100802.94;5053649;28;20237;-71
2022/11/08 09:21:10;;;;;;;0.70;0.70;;;;;;;19.33;90.10;100808.00;5080576;28;20206;-73
2022/11/08 09:23:37;;;;;;;0.80;0.80;;;;;;;19.49;87.67;100820.13;5092223;28;20206;-72
2022/11/08 09:26:06;;;;;;;0.73;0.73;;;;;;;19.54;86.97;100806.06;5091951;28;20198;-73
2022/11/08 09:28:34;;;;;;;0.75;0.75;;;;;;;19.28;87.54;100798.38;5078438;28;20234;-73
2022/11/08 09:31:02;;;;;;;0.85;0.85;;;;;;;19.68;86.35;100805.94;5091256;28;20210;-73
2022/11/08 09:33:29;;;;;;;0.80;0.80;;;;;;;19.96;84.79;100824.91;5079550;28;20245;-72
2022/11/08 09:35:56;;;;;;;0.88;0.88;;;;;;;19.88;83.38;100814.47;5089615;28;20286;-72
2022/11/08 09:38:23;;;;;;;0.80;0.80;;;;;;;20.18;82.57;100829.03;5092041;28;20202;-73
2022/11/08 09:41:01;;;;;;;1.00;1.00;;;;;;;20.50;82.08;100813.72;5088750;28;20223;-72
2022/11/08 09:43:47;;;;;;;0.65;0.65;;;;;;;20.52;81.19;100813.69;5081056;28;20324;-74
2022/11/08 09:46:24;;;;;;;0.65;0.65;;;;;;;20.42;82.07;100817.34;5091762;28;20202;-73
2022/11/08 09:48:53;;;;;;;0.80;0.80;;;;;;;20.42;81.02;100817.34;5079278;28;20198;-73
2022/11/08 09:51:23;;;;;;;0.70;0.70;;;;;;;20.19;80.84;100810.56;5089692;28;20629;-73
2022/11/08 09:53:53;;;;;;;0.60;0.60;;;;;;;19.88;82.70;100806.56;5091256;28;20218;-73
2022/11/08 09:56:26;;;;;;;0.60;0.60;;;;;;;19.98;82.80;100805.56;5077042;28;20194;-73
2022/11/08 09:59:00;;;;;;;0.60;0.60;;;;;;;20.45;80.57;100801.50;5055741;28;20651;-72
2022/11/08 10:01:30;;;;;;;1.00;1.00;;;;;;;20.70;78.43;100802.88;5091063;28;20314;-72
2022/11/08 10:04:01;;;;;;;2.30;2.20;;;;;;;20.21;79.74;100795.63;5091098;28;20202;-72
2022/11/08 10:06:42;;;;;;;0.70;0.70;;;;;;;20.09;81.99;100798.41;5087946;28;20788;-73
2022/11/08 10:09:25;;;;;;;0.85;0.85;;;;;;;20.58;80.12;100792.53;5048078;28;20206;-72
2022/11/08 10:12:03;;;;;;;0.60;0.60;;;;;;;20.46;78.63;100788.31;5090906;28;20198;-73
2022/11/08 10:14:39;;;;;;;0.60;0.60;;;;;;;20.77;78.14;100800.13;5091169;28;20284;-73
2022/11/08 10:17:23;;;;;;;0.60;0.60;;;;;;;21.14;76.38;100799.59;5090854;28;20194;-73
2022/11/08 10:20:05;;;;;;;0.68;0.68;;;;;;;21.16;73.53;100798.66;5076674;28;20202;-73
2022/11/08 10:22:42;;;;;;;0.98;0.90;;;;;;;21.12;73.49;100796.97;5070646;28;20206;-73
2022/11/08 10:25:19;;;;;;;0.60;0.60;;;;;;;20.68;74.36;100770.41;5086519;28;20696;-73
2022/11/08 10:27:46;;;;;;;0.80;0.80;;;;;;;20.36;84.88;100778.78;5090830;28;20216;-74
2022/11/08 10:30:19;;;;;;;0.70;0.70;;;;;;;20.62;79.25;100791.56;5089469;28;20567;-73
2022/11/08 10:32:50;;;;;;;0.70;0.70;;;;;;;19.94;78.21;100698.56;5079076;28;20225;-73
2022/11/08 10:35:25;;;;;;;4.15;2.03;;;;;;;20.65;77.15;100791.56;5076239;28;20195;-73
2022/11/08 10:37:56;;;;;;;0.93;0.93;;;;;;;20.04;79.42;100773.91;5090372;28;20209;-74
2022/11/08 10:40:38;;;;;;;0.57;0.57;;;;;;;20.18;79.71;100786.91;5090214;28;20292;-74
2022/11/08 10:43:12;;;;;;;0.93;0.93;;;;;;;20.12;80.14;100782.56;5081181;28;20210;-73
2022/11/08 10:45:41;;;;;;;2.60;1.15;;;;;;;19.49;80.79;100707.03;5084334;28;20214;-72
2022/11/08 10:48:11;;;;;;;0.70;0.70;;;;;;;19.69;82.59;100774.31;5079484;28;20217;-71
2022/11/08 10:50:43;;;;;;;2.15;2.05;;;;;;;19.47;84.23;100777.22;5090215;28;20271;-71
2022/11/08 10:53:17;;;;;;;0.70;0.70;;;;;;;19.15;85.67;100773.09;5081564;28;20317;-72
2022/11/08 10:55:49;;;;;;;0.85;0.85;;;;;;;19.17;86.83;100771.31;5067621;28;20765;-73
2022/11/08 10:58:31;;;;;;;0.60;0.60;;;;;;;19.29;86.19;100765.94;5090427;28;20198;-73
2022/11/08 11:01:06;;;;;;;0.80;0.80;;;;;;;19.33;86.15;100760.66;5090274;28;20206;-75
2022/11/08 11:03:33;;;;;;;0.60;0.60;;;;;;;19.08;86.73;100758.25;5090584;28;20210;-75
2022/11/08 11:06:01;;;;;;;0.70;0.70;;;;;;;19.17;86.58;100739.75;5090210;28;20232;-75
2022/11/08 11:08:28;;;;;;;0.60;0.60;;;;;;;19.00;87.38;100756.56;5090085;28;20205;-75
2022/11/08 11:10:55;;;;;;;0.60;0.60;;;;;;;18.74;89.32;100751.53;5086093;28;20653;-73
2022/11/08 11:13:24;;;;;;;2.38;2.17;;;;;;;18.52;90.38;100734.16;5089910;28;20225;-75
2022/11/08 11:15:53;;;;;;;1.85;1.58;;;;;;;18.77;90.95;100748.88;5090401;28;20210;-73
2022/11/08 11:18:30;;;;;;;0.70;0.70;;;;;;;18.63;89.94;100732.34;5090261;28;20210;-74
2022/11/08 11:21:04;;;;;;;0.60;0.60;;;;;;;19.21;87.92;100746.75;5080679;28;20259;-70
2022/11/08 11:23:42;;;;;;;0.80;0.80;;;;;;;19.46;86.87;100751.78;5050894;28;20208;-72
2022/11/08 11:26:18;;;;;;;0.80;0.80;;;;;;;19.24;85.70;100741.44;5089959;28;20193;-70
2022/11/08 11:29:15;;;;;;;0.80;0.80;;;;;;;19.46;86.73;100747.41;5090224;28;20666;-69
2022/11/08 11:31:44;;;;;;;0.70;0.70;;;;;;;19.36;85.81;100750.09;5054512;28;20226;-69
2022/11/08 11:34:40;;;;;;;0.70;0.70;;;;;;;19.11;85.76;100739.84;5089772;28;20720;-69
2022/11/08 11:37:18;;;;;;;1.95;1.85;;;;;;;19.03;86.86;100740.78;5090510;28;20277;-69
2022/11/08 11:39:54;;;;;;;0.80;0.80;;;;;;;18.90;87.58;100740.03;5070945;28;20198;-70
2022/11/08 11:42:27;;;;;;;1.23;1.23;;;;;;;18.81;88.19;100735.69;5090477;28;20658;-69
2022/11/08 11:45:09;;;;;;;0.80;0.80;;;;;;;18.81;87.49;100722.56;5090095;28;20309;-70
2022/11/08 11:47:46;;;;;;;1.40;1.40;;;;;;;18.77;89.26;100747.13;5089869;28;20567;-71
2022/11/08 11:50:22;;;;;;;0.60;0.60;;;;;;;18.81;87.49;100729.56;5090112;28;20255;-71